SKU weather

Skiros Airport
Skiros Island, Euboea, Greece

Public forecast

Using degrees Celsius for public forecast. Weather courtesy of forecast.io.

METAR (pilot weather report)

Retrieved 2018/06/21 18:50 UTC (11 minutes ago):

LGSY 211850Z 00000KT 9999 FEW025 22/16 Q1013 RMK SCT080 SCT180 BLU

TAF (pilot weather forecast)

Forecast is more than 12 hours old.

Closest forecast is Skiathos Island National Airport, 47.5 nm (88.0 km) WNW. Retrieved 2012/09/27 00:18 UTC (6 years ago):

TAF LGSK 272300Z 2800/2909 01010KT 9999 FEW020